createdAt,value
2023-03-06T00:00:57.076Z,4.27
2023-03-06T00:03:24.319Z,4.24
2023-03-06T00:05:50.982Z,4.23
2023-03-06T00:08:17.575Z,4.29
2023-03-06T00:10:44.601Z,4.26
2023-03-06T00:13:13.633Z,4.27
2023-03-06T00:15:41.153Z,4.28
2023-03-06T00:18:08.222Z,4.25
2023-03-06T00:20:35.484Z,4.23
2023-03-06T00:23:02.897Z,4.22
2023-03-06T00:25:29.449Z,4.21
2023-03-06T00:27:56.193Z,4.19
2023-03-06T00:30:24.664Z,4.20
2023-03-06T00:32:52.892Z,4.22
2023-03-06T00:35:19.718Z,4.15
2023-03-06T00:37:46.333Z,4.13
2023-03-06T00:40:19.847Z,4.12
2023-03-06T00:42:46.793Z,4.11
2023-03-06T00:45:14.446Z,4.09
2023-03-06T00:47:41.521Z,4.11
2023-03-06T00:50:09.325Z,4.09
2023-03-06T00:52:36.189Z,4.09
2023-03-06T00:55:02.952Z,4.10
2023-03-06T00:57:30.286Z,4.08
2023-03-06T00:59:56.763Z,4.09
2023-03-06T01:02:23.353Z,4.09
2023-03-06T01:04:49.962Z,4.05
2023-03-06T01:07:16.795Z,4.05
2023-03-06T01:09:44.233Z,4.05
2023-03-06T01:12:10.784Z,4.05
2023-03-06T01:14:37.455Z,4.05
2023-03-06T01:17:04.281Z,4.04
2023-03-06T01:19:30.977Z,4.01
2023-03-06T01:21:57.572Z,3.99
2023-03-06T01:24:25.829Z,3.97
2023-03-06T01:26:52.742Z,3.98
2023-03-06T01:29:19.328Z,3.96
2023-03-06T01:31:45.981Z,3.92
2023-03-06T01:34:12.593Z,3.92
2023-03-06T01:36:39.422Z,3.92
2023-03-06T01:39:06.094Z,3.91
2023-03-06T01:41:32.989Z,3.91
2023-03-06T01:43:59.768Z,3.92
2023-03-06T01:46:30.270Z,3.91
2023-03-06T01:49:01.049Z,3.88
2023-03-06T01:51:32.683Z,3.88
2023-03-06T01:54:02.913Z,3.87
2023-03-06T01:56:29.845Z,3.87
2023-03-06T01:58:58.458Z,3.87
2023-03-06T02:01:25.919Z,3.85
2023-03-06T02:03:52.933Z,3.85
2023-03-06T02:06:21.898Z,3.82
2023-03-06T02:08:51.699Z,3.81
2023-03-06T02:11:25.782Z,3.82
2023-03-06T02:13:57.834Z,3.81
2023-03-06T02:16:27.894Z,3.80
2023-03-06T02:18:55.281Z,3.77
2023-03-06T02:21:26.143Z,3.75
2023-03-06T02:24:08.794Z,3.81
2023-03-06T02:26:37.577Z,3.78
2023-03-06T02:29:04.610Z,3.78
2023-03-06T02:31:33.722Z,3.80
2023-03-06T02:34:16.754Z,3.76
2023-03-06T02:36:47.599Z,3.75
2023-03-06T02:39:16.176Z,3.75
2023-03-06T02:41:42.754Z,3.74
2023-03-06T02:44:09.306Z,3.69
2023-03-06T02:46:36.175Z,3.69
2023-03-06T02:49:02.822Z,3.64
2023-03-06T02:51:29.319Z,3.62
2023-03-06T02:53:55.860Z,3.63
2023-03-06T02:56:22.884Z,3.58
2023-03-06T02:58:49.418Z,3.59
2023-03-06T03:01:16.284Z,3.56
2023-03-06T03:03:42.866Z,3.51
2023-03-06T03:06:09.376Z,3.53
2023-03-06T03:08:36.319Z,3.56
2023-03-06T03:11:04.318Z,3.51
2023-03-06T03:13:30.851Z,3.49
2023-03-06T03:16:01.148Z,3.50
2023-03-06T03:18:28.136Z,3.55
2023-03-06T03:20:55.321Z,3.56
2023-03-06T03:23:22.854Z,3.53
2023-03-06T03:25:50.114Z,3.62
2023-03-06T03:28:17.361Z,3.68
2023-03-06T03:30:43.985Z,3.61
2023-03-06T03:33:11.359Z,3.53
2023-03-06T03:35:38.068Z,3.52
2023-03-06T03:38:04.998Z,3.44
2023-03-06T03:40:31.583Z,3.40
2023-03-06T03:42:58.339Z,3.35
2023-03-06T03:45:27.757Z,3.32
2023-03-06T03:47:54.257Z,3.29
2023-03-06T03:50:20.810Z,3.26
2023-03-06T03:52:47.436Z,3.21
2023-03-06T03:55:14.098Z,3.16
2023-03-06T03:57:40.610Z,3.14
2023-03-06T04:00:08.179Z,3.09
2023-03-06T04:02:34.774Z,3.06
2023-03-06T04:05:01.500Z,3.03
2023-03-06T04:07:28.162Z,2.99
2023-03-06T04:09:54.823Z,2.94
2023-03-06T04:12:21.399Z,2.90
2023-03-06T04:14:47.920Z,2.92
2023-03-06T04:17:14.460Z,2.89
2023-03-06T04:19:40.984Z,2.86
2023-03-06T04:22:07.490Z,2.86
2023-03-06T04:24:34.039Z,2.81
2023-03-06T04:27:00.691Z,2.77
2023-03-06T04:29:27.303Z,2.72
2023-03-06T04:31:53.931Z,2.67
2023-03-06T04:34:20.436Z,2.66
2023-03-06T04:36:46.988Z,2.60
2023-03-06T04:39:14.670Z,2.59
2023-03-06T04:41:42.375Z,2.55
2023-03-06T04:44:09.020Z,2.51
2023-03-06T04:46:36.661Z,2.47
2023-03-06T04:49:04.154Z,2.41
2023-03-06T04:51:30.988Z,2.25
2023-03-06T04:53:57.497Z,2.28
2023-03-06T04:56:24.336Z,2.25
2023-03-06T04:58:50.968Z,2.25
2023-03-06T05:01:17.536Z,2.26
2023-03-06T05:03:44.040Z,2.23
2023-03-06T05:06:10.663Z,2.22
2023-03-06T05:08:37.214Z,2.26
2023-03-06T05:11:04.083Z,2.24
2023-03-06T05:13:30.594Z,2.29
2023-03-06T05:16:02.871Z,2.34
2023-03-06T05:18:29.464Z,2.40
2023-03-06T05:21:00.120Z,2.42
2023-03-06T05:23:28.096Z,2.47
2023-03-06T05:25:54.765Z,2.49
2023-03-06T05:28:21.384Z,2.53
2023-03-06T05:30:48.099Z,2.48
2023-03-06T05:33:16.494Z,2.47
2023-03-06T05:35:47.963Z,2.41
2023-03-06T05:38:16.054Z,2.40
2023-03-06T05:40:43.936Z,2.37
2023-03-06T05:43:11.977Z,2.30
2023-03-06T05:45:39.975Z,2.25
2023-03-06T05:48:07.500Z,2.28
2023-03-06T05:50:34.179Z,2.30
2023-03-06T05:53:01.510Z,2.31
2023-03-06T05:55:29.664Z,2.54
2023-03-06T05:57:56.213Z,2.55
2023-03-06T06:00:23.227Z,2.46
2023-03-06T06:02:49.791Z,2.35
2023-03-06T06:05:16.458Z,2.49
2023-03-06T06:07:43.142Z,2.62
2023-03-06T06:10:11.409Z,2.63
2023-03-06T06:12:38.011Z,2.49
2023-03-06T06:15:06.599Z,2.49
2023-03-06T06:17:33.295Z,2.41
2023-03-06T06:19:59.903Z,2.47
2023-03-06T06:22:26.446Z,2.55
2023-03-06T06:24:53.030Z,2.63
2023-03-06T06:27:19.519Z,2.70
2023-03-06T06:29:46.005Z,2.75
2023-03-06T06:32:12.515Z,2.81
2023-03-06T06:34:39.040Z,2.95
2023-03-06T06:37:08.140Z,2.92
2023-03-06T06:39:34.659Z,3.00
2023-03-06T06:42:21.705Z,3.12
2023-03-06T06:44:48.938Z,3.26
2023-03-06T06:47:23.113Z,3.32
2023-03-06T06:49:54.953Z,3.47
2023-03-06T06:52:22.399Z,3.53
2023-03-06T06:54:48.942Z,3.50
2023-03-06T06:57:15.985Z,3.51
2023-03-06T06:59:42.734Z,3.57
2023-03-06T07:02:13.351Z,3.54
2023-03-06T07:04:52.284Z,3.61
2023-03-06T07:07:28.533Z,3.70
2023-03-06T07:09:55.541Z,3.79
2023-03-06T07:12:22.264Z,3.80
2023-03-06T07:14:48.774Z,3.92
2023-03-06T07:17:16.699Z,3.99
2023-03-06T07:19:43.260Z,4.07
2023-03-06T07:22:09.909Z,4.27
2023-03-06T07:24:36.469Z,4.35
2023-03-06T07:27:03.030Z,4.35
2023-03-06T07:29:29.642Z,4.40
2023-03-06T07:31:56.293Z,4.48
2023-03-06T07:34:22.859Z,4.53
2023-03-06T07:36:53.344Z,4.61
2023-03-06T07:39:19.933Z,4.69
2023-03-06T07:41:46.414Z,4.83
2023-03-06T07:44:12.921Z,4.93
2023-03-06T07:46:39.571Z,4.96
2023-03-06T07:49:06.177Z,4.92
2023-03-06T07:51:32.814Z,4.92
2023-03-06T07:53:59.464Z,4.95
2023-03-06T07:56:26.060Z,4.93
2023-03-06T07:58:52.657Z,4.94
2023-03-06T08:01:23.638Z,4.96
2023-03-06T08:03:50.518Z,4.96
2023-03-06T08:06:20.883Z,4.93
2023-03-06T08:08:49.476Z,4.96
2023-03-06T08:11:18.890Z,5.02
2023-03-06T08:13:52.793Z,5.06
2023-03-06T08:16:27.126Z,5.13
2023-03-06T08:18:53.995Z,5.22
2023-03-06T08:21:23.805Z,5.28
2023-03-06T08:23:50.980Z,5.33
2023-03-06T08:26:20.647Z,5.29
2023-03-06T08:28:47.774Z,5.31
2023-03-06T08:31:27.326Z,5.35
2023-03-06T08:33:55.025Z,5.47
2023-03-06T08:36:21.871Z,5.51
2023-03-06T08:38:48.524Z,5.50
2023-03-06T08:41:15.132Z,5.51
2023-03-06T08:43:41.786Z,5.49
2023-03-06T08:46:08.336Z,5.59
2023-03-06T08:48:38.364Z,5.56
2023-03-06T08:51:05.848Z,5.67
2023-03-06T08:53:42.727Z,5.53
2023-03-06T08:56:22.758Z,5.67
2023-03-06T08:58:50.016Z,5.68
2023-03-06T09:01:18.858Z,5.67
2023-03-06T09:03:45.858Z,5.73
2023-03-06T09:06:13.636Z,5.77
2023-03-06T09:08:43.204Z,5.78
2023-03-06T09:11:15.014Z,5.82
2023-03-06T09:13:43.111Z,5.88
2023-03-06T09:16:11.212Z,5.86
2023-03-06T09:18:37.933Z,5.96
2023-03-06T09:21:06.037Z,5.99
2023-03-06T09:23:32.755Z,6.14
2023-03-06T09:26:00.712Z,6.19
2023-03-06T09:28:27.679Z,6.22
2023-03-06T09:30:54.889Z,6.27
2023-03-06T09:33:22.260Z,6.28
2023-03-06T09:35:52.162Z,6.37
2023-03-06T09:38:20.862Z,6.43
2023-03-06T09:41:02.736Z,6.42
2023-03-06T09:43:35.477Z,6.45
2023-03-06T09:46:13.716Z,6.48
2023-03-06T09:48:46.537Z,6.46
2023-03-06T09:51:17.020Z,6.53
2023-03-06T09:53:56.801Z,6.59
2023-03-06T09:56:31.188Z,6.85
2023-03-06T09:59:20.870Z,7.03
2023-03-06T10:02:40.269Z,7.05
2023-03-06T10:05:13.414Z,7.21
2023-03-06T10:07:47.978Z,7.22
2023-03-06T10:10:24.296Z,7.28
2023-03-06T10:13:06.487Z,7.32
2023-03-06T10:15:36.270Z,7.43
2023-03-06T10:18:04.558Z,7.43
2023-03-06T10:20:58.300Z,7.48
2023-03-06T10:23:52.311Z,7.45
2023-03-06T10:26:28.069Z,7.41
2023-03-06T10:29:08.975Z,7.62
2023-03-06T10:31:37.441Z,7.63
2023-03-06T10:34:24.423Z,7.56
2023-03-06T10:36:51.139Z,7.58
2023-03-06T10:39:21.173Z,7.52
2023-03-06T10:41:48.906Z,7.56
2023-03-06T10:44:15.464Z,7.55
2023-03-06T10:46:44.739Z,7.62
2023-03-06T10:49:14.120Z,7.68
2023-03-06T10:52:07.029Z,7.74
2023-03-06T10:54:39.148Z,7.80
2023-03-06T10:57:25.208Z,7.84
2023-03-06T10:59:53.629Z,7.76
2023-03-06T11:02:39.475Z,7.80
2023-03-06T11:05:18.117Z,7.79
2023-03-06T11:07:59.519Z,7.86
2023-03-06T11:10:27.628Z,7.93
2023-03-06T11:13:02.778Z,7.99
2023-03-06T11:15:30.079Z,8.05
2023-03-06T11:18:24.873Z,8.06
2023-03-06T11:20:53.674Z,8.18
2023-03-06T11:23:35.155Z,8.27
2023-03-06T11:26:16.824Z,8.31
2023-03-06T11:28:48.450Z,8.37
2023-03-06T11:31:26.973Z,8.40
2023-03-06T11:34:07.085Z,8.38
2023-03-06T11:36:58.723Z,8.38
2023-03-06T11:39:32.982Z,8.43
2023-03-06T11:42:09.559Z,8.51
2023-03-06T11:44:45.670Z,8.53
2023-03-06T11:47:36.791Z,8.56
2023-03-06T11:50:25.631Z,8.53
2023-03-06T11:53:00.010Z,8.54
2023-03-06T11:56:07.641Z,8.60
2023-03-06T11:58:53.832Z,8.36
2023-03-06T12:01:29.343Z,8.37
2023-03-06T12:04:26.904Z,8.32
2023-03-06T12:07:23.671Z,8.25
2023-03-06T12:09:56.257Z,8.29
2023-03-06T12:12:42.088Z,8.31
2023-03-06T12:15:08.866Z,8.32
2023-03-06T12:17:50.360Z,8.44
2023-03-06T12:20:44.300Z,8.33
2023-03-06T12:23:16.951Z,8.38
2023-03-06T12:25:47.436Z,8.40
2023-03-06T12:28:23.523Z,8.48
2023-03-06T12:31:14.352Z,8.41
2023-03-06T12:33:49.871Z,8.45
2023-03-06T12:36:28.521Z,8.44
2023-03-06T12:38:57.815Z,8.54
2023-03-06T12:41:39.579Z,8.58
2023-03-06T12:44:15.131Z,8.41
2023-03-06T12:46:49.668Z,8.23
2023-03-06T12:49:32.829Z,8.14
2023-03-06T12:52:01.311Z,8.19
2023-03-06T12:54:31.143Z,8.26
2023-03-06T12:56:59.965Z,8.24
2023-03-06T12:59:38.448Z,8.23
2023-03-06T13:02:14.146Z,8.17
2023-03-06T13:04:50.911Z,8.17
2023-03-06T13:07:52.797Z,8.12
2023-03-06T13:10:25.894Z,8.07
2023-03-06T13:13:00.784Z,8.07
2023-03-06T13:15:30.005Z,7.94
2023-03-06T13:17:57.339Z,7.95
2023-03-06T13:20:26.755Z,7.96
2023-03-06T13:22:53.353Z,7.87
2023-03-06T13:25:19.967Z,7.85
2023-03-06T13:27:59.053Z,7.70
2023-03-06T13:30:43.206Z,7.70
2023-03-06T13:33:37.225Z,7.69
2023-03-06T13:36:27.512Z,7.70
2023-03-06T13:39:01.119Z,7.74
2023-03-06T13:41:37.591Z,7.62
2023-03-06T13:44:24.572Z,7.53
2023-03-06T13:47:05.309Z,7.55
2023-03-06T13:49:33.262Z,7.57
2023-03-06T13:52:10.928Z,7.57
2023-03-06T13:54:46.409Z,7.46
2023-03-06T13:57:31.033Z,7.37
2023-03-06T14:00:17.009Z,7.39
2023-03-06T14:03:05.372Z,7.31
2023-03-06T14:05:49.741Z,7.25
2023-03-06T14:08:27.213Z,7.13
2023-03-06T14:11:08.809Z,7.07
2023-03-06T14:13:47.483Z,7.06
2023-03-06T14:16:29.067Z,7.09
2023-03-06T14:18:58.938Z,7.09
2023-03-06T14:21:36.875Z,6.99
2023-03-06T14:24:05.155Z,6.96
2023-03-06T14:26:44.959Z,6.93
2023-03-06T14:29:23.068Z,6.84
2023-03-06T14:31:52.034Z,6.84
2023-03-06T14:34:24.643Z,6.90
2023-03-06T14:36:53.721Z,6.91
2023-03-06T14:39:39.493Z,6.92
2023-03-06T14:42:18.178Z,6.84
2023-03-06T14:44:46.109Z,6.92
2023-03-06T14:47:22.201Z,6.88
2023-03-06T14:50:18.423Z,6.80
2023-03-06T14:52:45.183Z,6.84
2023-03-06T14:55:17.663Z,6.79
2023-03-06T14:57:44.795Z,6.74
2023-03-06T15:00:18.305Z,6.70
2023-03-06T15:02:50.565Z,6.71
2023-03-06T15:05:29.765Z,6.70
2023-03-06T15:08:02.023Z,6.63
2023-03-06T15:10:31.543Z,6.60
2023-03-06T15:13:22.173Z,6.58
2023-03-06T15:16:06.221Z,6.56
2023-03-06T15:18:39.261Z,6.58
2023-03-06T15:21:27.518Z,6.66
2023-03-06T15:23:56.709Z,6.63
2023-03-06T15:26:32.687Z,6.61
2023-03-06T15:29:10.307Z,6.44
2023-03-06T15:31:39.335Z,6.46
2023-03-06T15:34:11.559Z,6.42
2023-03-06T15:36:46.717Z,6.48
2023-03-06T15:39:38.098Z,6.45
2023-03-06T15:42:16.446Z,6.42
2023-03-06T15:44:43.055Z,6.40
2023-03-06T15:47:11.827Z,6.28
2023-03-06T15:49:42.529Z,6.27
2023-03-06T15:52:09.871Z,6.22
2023-03-06T15:54:36.913Z,6.21
2023-03-06T15:57:06.103Z,6.19
2023-03-06T15:59:37.743Z,6.18
2023-03-06T16:02:14.127Z,6.11
2023-03-06T16:04:40.725Z,6.11
2023-03-06T16:07:07.296Z,6.00
2023-03-06T16:09:33.939Z,5.96
2023-03-06T16:12:00.556Z,5.94
2023-03-06T16:14:27.370Z,5.85
2023-03-06T16:16:54.761Z,5.78
2023-03-06T16:19:26.501Z,5.79
2023-03-06T16:21:55.038Z,5.78
2023-03-06T16:24:21.991Z,5.77
2023-03-06T16:26:53.487Z,5.76
2023-03-06T16:29:23.065Z,5.70
2023-03-06T16:31:50.019Z,5.72
2023-03-06T16:34:19.813Z,5.71
2023-03-06T16:36:48.397Z,5.64
2023-03-06T16:39:16.520Z,5.56
2023-03-06T16:41:43.147Z,5.53
2023-03-06T16:44:10.579Z,5.52
2023-03-06T16:46:40.380Z,5.48
2023-03-06T16:49:07.294Z,5.47
2023-03-06T16:51:34.086Z,5.44
2023-03-06T16:54:00.715Z,5.39
2023-03-06T16:56:27.327Z,5.37
2023-03-06T16:58:53.910Z,5.38
2023-03-06T17:01:20.614Z,5.34
2023-03-06T17:03:47.241Z,5.30
2023-03-06T17:06:19.038Z,5.27
2023-03-06T17:08:46.309Z,5.26
2023-03-06T17:11:13.837Z,5.26
2023-03-06T17:13:40.716Z,5.26
2023-03-06T17:16:09.551Z,5.21
2023-03-06T17:18:36.219Z,5.21
2023-03-06T17:21:02.927Z,5.17
2023-03-06T17:23:30.439Z,5.14
2023-03-06T17:26:08.759Z,5.13
2023-03-06T17:28:37.012Z,5.13
2023-03-06T17:31:11.920Z,5.10
2023-03-06T17:33:38.454Z,5.10
2023-03-06T17:36:05.299Z,5.07
2023-03-06T17:38:31.850Z,5.03
2023-03-06T17:41:03.840Z,4.98
2023-03-06T17:43:31.142Z,4.95
2023-03-06T17:45:58.019Z,4.96
2023-03-06T17:48:24.519Z,4.93
2023-03-06T17:50:55.440Z,4.93
2023-03-06T17:53:23.201Z,4.92
2023-03-06T17:55:49.795Z,4.90
2023-03-06T17:58:16.599Z,4.89
2023-03-06T18:00:43.683Z,4.86
2023-03-06T18:03:10.354Z,4.86
2023-03-06T18:05:37.723Z,4.84
2023-03-06T18:08:04.786Z,4.83
2023-03-06T18:10:31.455Z,4.76
2023-03-06T18:12:57.927Z,4.78
2023-03-06T18:15:27.169Z,4.82
2023-03-06T18:17:54.803Z,4.77
2023-03-06T18:20:21.391Z,4.76
2023-03-06T18:22:47.919Z,4.74
2023-03-06T18:25:14.456Z,4.71
2023-03-06T18:27:41.012Z,4.71
2023-03-06T18:30:08.155Z,4.71
2023-03-06T18:32:35.284Z,4.69
2023-03-06T18:35:01.910Z,4.65
2023-03-06T18:37:28.506Z,4.64
2023-03-06T18:39:55.177Z,4.60
2023-03-06T18:42:23.845Z,4.61
2023-03-06T18:44:50.409Z,4.58
2023-03-06T18:47:17.103Z,4.61
2023-03-06T18:49:45.959Z,4.62
2023-03-06T18:52:12.938Z,4.58
2023-03-06T18:54:39.688Z,4.59
2023-03-06T18:57:06.366Z,4.59
2023-03-06T18:59:33.215Z,4.58
2023-03-06T19:01:59.872Z,4.56
2023-03-06T19:04:26.726Z,4.55
2023-03-06T19:06:54.654Z,4.54
2023-03-06T19:09:22.011Z,4.52
2023-03-06T19:11:49.679Z,4.47
2023-03-06T19:14:16.816Z,4.46
2023-03-06T19:16:43.548Z,4.45
2023-03-06T19:19:10.239Z,4.44
2023-03-06T19:21:36.874Z,4.44
2023-03-06T19:24:03.507Z,4.44
2023-03-06T19:26:33.350Z,4.45
2023-03-06T19:28:59.915Z,4.44
2023-03-06T19:31:27.998Z,4.42
2023-03-06T19:33:56.645Z,4.41
2023-03-06T19:36:27.822Z,4.38
2023-03-06T19:38:58.186Z,4.38
2023-03-06T19:41:25.753Z,4.35
2023-03-06T19:43:55.157Z,4.34
2023-03-06T19:46:23.006Z,4.33
2023-03-06T19:48:57.931Z,4.32
2023-03-06T19:51:24.755Z,4.31
2023-03-06T19:53:51.419Z,4.28
2023-03-06T19:56:21.276Z,4.31
2023-03-06T19:58:48.033Z,4.29
2023-03-06T20:01:17.277Z,4.30
2023-03-06T20:03:43.928Z,4.31
2023-03-06T20:06:16.499Z,4.30
2023-03-06T20:08:43.660Z,4.28
2023-03-06T20:11:21.394Z,4.29
2023-03-06T20:13:48.748Z,4.24
2023-03-06T20:16:18.848Z,4.25
2023-03-06T20:18:45.796Z,4.20
2023-03-06T20:21:12.593Z,4.21
2023-03-06T20:23:39.413Z,4.19
2023-03-06T20:26:09.706Z,4.21
2023-03-06T20:28:39.060Z,4.23
2023-03-06T20:31:09.971Z,4.24
2023-03-06T20:33:36.925Z,4.21
2023-03-06T20:36:15.423Z,4.20
2023-03-06T20:38:42.453Z,4.20
2023-03-06T20:41:20.225Z,4.19
2023-03-06T20:43:46.843Z,4.17
2023-03-06T20:46:14.757Z,4.20
2023-03-06T20:48:42.380Z,4.15
2023-03-06T20:51:16.456Z,4.15
2023-03-06T20:53:43.195Z,4.11
2023-03-06T20:56:21.508Z,4.10
2023-03-06T20:58:48.169Z,4.07
2023-03-06T21:01:23.432Z,4.06
2023-03-06T21:03:50.514Z,4.04
2023-03-06T21:06:17.664Z,3.98
2023-03-06T21:08:44.172Z,3.95
2023-03-06T21:11:11.006Z,3.92
2023-03-06T21:13:37.734Z,3.87
2023-03-06T21:16:09.862Z,3.85
2023-03-06T21:18:36.540Z,3.82
2023-03-06T21:21:18.472Z,3.81
2023-03-06T21:23:46.454Z,3.78
2023-03-06T21:26:15.056Z,3.75
2023-03-06T21:28:41.799Z,3.73
2023-03-06T21:31:12.796Z,3.71
2023-03-06T21:33:39.951Z,3.64
2023-03-06T21:36:07.164Z,3.63
2023-03-06T21:38:34.121Z,3.58
2023-03-06T21:41:09.753Z,3.57
2023-03-06T21:43:36.408Z,3.54
2023-03-06T21:46:03.028Z,3.50
2023-03-06T21:48:29.577Z,3.55
2023-03-06T21:51:15.765Z,3.50
2023-03-06T21:53:44.112Z,3.46
2023-03-06T21:56:11.920Z,3.45
2023-03-06T21:58:38.567Z,3.42
2023-03-06T22:01:13.098Z,3.40
2023-03-06T22:03:40.064Z,3.37
2023-03-06T22:06:08.624Z,3.42
2023-03-06T22:08:35.146Z,3.42
2023-03-06T22:11:06.485Z,3.38
2023-03-06T22:13:33.044Z,3.33
2023-03-06T22:15:59.600Z,3.28
2023-03-06T22:18:26.154Z,3.24
2023-03-06T22:20:52.666Z,3.26
2023-03-06T22:23:19.259Z,3.20
2023-03-06T22:25:45.812Z,3.19
2023-03-06T22:28:13.229Z,3.15
2023-03-06T22:30:39.728Z,3.18
2023-03-06T22:33:06.268Z,3.19
2023-03-06T22:35:32.969Z,3.26
2023-03-06T22:38:02.764Z,3.20
2023-03-06T22:40:29.326Z,3.15
2023-03-06T22:42:56.222Z,3.12
2023-03-06T22:45:22.975Z,3.10
2023-03-06T22:47:50.795Z,3.07
2023-03-06T22:50:18.899Z,3.06
2023-03-06T22:52:45.442Z,3.04
2023-03-06T22:55:11.983Z,3.07
2023-03-06T22:57:38.546Z,3.03
2023-03-06T23:00:07.435Z,2.90
2023-03-06T23:02:35.205Z,2.90
2023-03-06T23:05:02.019Z,2.96
2023-03-06T23:07:28.552Z,2.94
2023-03-06T23:09:55.118Z,2.94
2023-03-06T23:12:21.958Z,2.87
2023-03-06T23:14:51.108Z,2.86
2023-03-06T23:17:18.030Z,2.87
2023-03-06T23:19:44.745Z,2.86
2023-03-06T23:22:11.388Z,2.82
2023-03-06T23:24:38.016Z,2.83
2023-03-06T23:27:04.791Z,2.83
2023-03-06T23:29:31.606Z,2.78
2023-03-06T23:31:58.123Z,2.73
2023-03-06T23:34:24.716Z,2.71
2023-03-06T23:36:51.288Z,2.73
2023-03-06T23:39:18.910Z,2.68
2023-03-06T23:41:45.695Z,2.68
2023-03-06T23:44:12.227Z,2.60
2023-03-06T23:46:38.868Z,2.54
2023-03-06T23:49:06.336Z,2.57
2023-03-06T23:51:32.906Z,2.55
2023-03-06T23:54:00.441Z,2.55
2023-03-06T23:56:28.959Z,2.52
2023-03-06T23:58:55.706Z,2.52
